Lake City, Michigan
Current Conditions -  °F | °C
As of 4:34 PM on Saturday 25 Oct 2014 (Local Time) from KCAD Reporting Station
Clear Clear  
Wind Chill: 58°   Ceiling: Unl
Heat Index: 58°   Visibility: 10mi
Dew Point: 35°   Wind: 21mph
Humidity: 41%   Direction: 280°W
Pressure: 29.75"   Gusts: 32mph
Location:  44.34°N, 85.22°W
Report Text: KCAD 252034Z AUTO 28018G28KT 10SM CLR 14/01 A2975 RMK AO2 T01470015
Loading
Personal Weather Stations






























Interactive Weather Map
Tropical Storm Tracking
New forecast layout! Learn more

10-Day Weather Forecast

Advertisements
Track Severe Weather on mobile